My Meet Scores
Ashlynn Zimniewicz, Infinity Gymnastics Academy - MyMeetScores.com
Top100 | Top Teams | Upcoming Meets | Completed Meets | Latest | Add Scores | Help| Support | Bookmark and Share

Ashlynn Zimniewicz, Infinity Gymnastics Academy
Personal Bests
LevelVault BarsBeamFloorAA
39.2758.875 8.5759.10035.650
48.4007.950 8.8508.55032.975
Meet Scores
Date Meet Team Session Level Division Vault Bars Beam Floor AA
2018-02-23 Kinetic Classic Infinity Gymnastics Academy 7 4 Older 8.100 57T 6.850 89 8.425 79T 7.875 89 31.250 89
2018-02-17 Women's Midwest Open Infinity Gymnastics Academy 08 4 JR B 8.150 15 7.550 16 8.500 11T 8.550 14T 32.750 16
2018-02-02 Chris Waller's Heart Of A Champion Invitational Infinity Gymnastics Academy 12H 4 Sr A 7.800 13 7.150 13 7.800 12 7.875 13 30.625 13
2018-01-18 Circle Of Stars Gymnastics Invitational Infinity Gymnastics Academy C3 4 Sr A 8.375 12 7.600 16 8.850 12 8.150 12 32.975 14
2018-01-12 St Jude Benefit Meet Infinity Gymnastics Academy 3A 4 SrA 7.925 13 7.700 17 8.800 12T 8.175 14 32.600 15
2017-12-14 2017 Women's Hawaiian Pineapple Classic Infinity Gymnastics Academy 1A 4 Ages11+ 7.600 14T 7.550 17 8.800 5 8.350 16 32.300 15
2017-11-10 Illinois NAWGJ Judges Cup 2017 Infinity Gymnastics Academy G3 4 All Ages 7.600 63T 7.675 58T 8.825 21T 7.750 65T 31.850 55
2017-02-24 Houston National Invitational - Ocean View Infinity Gymnastics Academy O07 4 JR B 0.000 17 7.950 13 8.350 12T 7.900 15 24.200 17
2017-02-10 IGI Chicago Style Gymnastics Meet Infinity Gymnastics Academy 612L 4 JrB 0.000 9 7.300 22 8.400 20 6.500 23 22.200 23
2017-01-28 Wisconsin Dells Gymnastics Vacation Classic - USAG Infinity Gymnastics Academy B7 4 Junior A 7.800 14T 7.000 17 8.525 10 7.300 16 30.625 17
2017-01-20 2017 Bravo Classic Infinity Gymnastics Academy 06B 4 10yrs 7.650 21 7.250 22 8.700 15T 7.850 22 31.450 21
2017-01-13 St Jude Benefit Meet Infinity Gymnastics Academy 4A 4 Jr B 7.600 17 0.000 18T 8.300 19 8.100 18 24.000 18
2016-12-15 2016 Hawaiian Pineapple Sanction Infinity Gymnastics Academy 6A 4 Age 10 7.950 9 7.525 11 8.350 11T 8.325 11 32.150 11
2016-11-11 2016 Illinois Judges Cup Infinity Gymnastics Academy R3 4 9 Year Old 8.400 4 0.000 15 8.400 9T 8.275 12 25.075 15
2016-03-04 2016 Illinois Level 3 State Championships Premier Gymnastics Academy 3 Junior-B 9.100 21 8.775 17 7.900 30 8.650 19 34.425 23
2016-02-13 Western Invite Premier Gymnastics Academy 2 3 Cowgirl 9.275 7 8.875 12 8.400 19 9.100 12T 35.650 13
2016-01-08 St Jude Benefit Meet Premier Gymnastics Academy 8A 3 Sr B 9.100 12T 8.400 7 7.850 15 9.025 3 34.375 13
2015-12-18 2015 Aspire Classic Premier Gymnastics Academy 11 3 Older 9.125 16T 8.700 17 8.575 21 8.825 16 35.225 18
2015-03-12 2015 Illinois Level 3 State Championship Premier Gymnastics Academy All 3 Youth-A 8.400 31 7.750 30 8.150 28 7.750 31 32.050 32
2015-02-27 Elk Grove Gymnastics Invite Premier Gymnastics Academy 1 3 6-8yrs 8.800 25 7.650 25T 6.650 31 8.200 25 31.300 22
2015-02-21 BIG Classic Premier Gymnastics Academy 1A 3 Child A 9.025 8 7.950 9 8.000 11 8.050 15 33.025 8T
2015-02-14 2015 Great Western Invitational Premier Gymnastics Academy 4 3 Filly 8.400 22 7.650 20 6.900 23 8.325 15 31.275 22
2015-01-09 Leendas Island Adventure Premier Gymnastics Academy G4 3 8 Year Old 8.650 12T 7.300 13 6.700 13 8.000 13T 30.650 14

www.lazysuits.com